createdAt,value
2018-01-05T00:00:10.114Z,0.00
2018-01-05T00:01:10.109Z,0.00
2018-01-05T00:02:10.105Z,0.00
2018-01-05T00:03:10.101Z,0.00
2018-01-05T00:04:10.094Z,0.00
2018-01-05T00:05:10.090Z,0.00
2018-01-05T00:06:10.100Z,0.00
2018-01-05T00:07:10.081Z,0.00
2018-01-05T00:08:10.075Z,0.00
2018-01-05T00:09:10.072Z,0.00
2018-01-05T00:10:10.073Z,0.00
2018-01-05T00:11:10.063Z,0.00
2018-01-05T00:12:10.058Z,0.00
2018-01-05T00:13:10.053Z,0.00
2018-01-05T00:14:10.048Z,0.00
2018-01-05T00:15:10.044Z,0.00
2018-01-05T00:16:10.038Z,0.00
2018-01-05T00:17:10.034Z,0.00
2018-01-05T00:18:10.031Z,0.00
2018-01-05T00:19:10.025Z,0.00
2018-01-05T00:20:10.020Z,0.00
2018-01-05T00:21:10.015Z,0.00
2018-01-05T00:22:10.011Z,0.00
2018-01-05T00:23:10.006Z,0.00
2018-01-05T00:24:10.001Z,0.00
2018-01-05T00:25:09.996Z,0.00
2018-01-05T00:26:09.992Z,0.00
2018-01-05T00:27:09.987Z,0.00
2018-01-05T00:28:09.981Z,0.00
2018-01-05T00:29:09.980Z,0.00
2018-01-05T00:30:10.025Z,0.00
2018-01-05T00:31:09.968Z,0.00
2018-01-05T00:32:09.962Z,0.00
2018-01-05T00:33:09.958Z,0.00
2018-01-05T00:34:09.954Z,0.00
2018-01-05T00:35:09.949Z,0.00
2018-01-05T00:36:09.945Z,0.00
2018-01-05T00:37:09.939Z,0.00
2018-01-05T00:38:09.934Z,0.00
2018-01-05T00:39:09.930Z,0.00
2018-01-05T00:40:09.924Z,0.00
2018-01-05T00:41:09.920Z,0.00
2018-01-05T00:42:09.914Z,0.00
2018-01-05T00:43:09.911Z,0.00
2018-01-05T00:44:09.905Z,0.00
2018-01-05T00:45:09.901Z,0.00
2018-01-05T00:46:09.896Z,0.00
2018-01-05T00:47:09.892Z,0.00
2018-01-05T00:48:09.886Z,0.00
2018-01-05T00:49:09.882Z,0.00
2018-01-05T00:50:09.877Z,0.00
2018-01-05T00:51:09.872Z,0.00
2018-01-05T00:52:09.866Z,0.00
2018-01-05T00:53:09.862Z,0.00
2018-01-05T00:54:09.858Z,0.00
2018-01-05T00:55:09.854Z,0.00
2018-01-05T00:56:09.848Z,0.00
2018-01-05T00:57:09.844Z,0.00
2018-01-05T00:58:09.838Z,0.00
2018-01-05T00:59:09.833Z,0.00
2018-01-05T01:00:09.828Z,0.00
2018-01-05T01:01:09.824Z,0.00
2018-01-05T01:02:09.820Z,0.00
2018-01-05T01:03:09.816Z,0.00
2018-01-05T01:04:09.810Z,0.00
2018-01-05T01:05:09.805Z,0.00
2018-01-05T01:06:09.800Z,0.00
2018-01-05T01:07:09.795Z,0.00
2018-01-05T01:08:09.790Z,0.00
2018-01-05T01:09:09.785Z,0.00
2018-01-05T01:10:09.780Z,0.00
2018-01-05T01:11:09.777Z,0.00
2018-01-05T01:12:09.771Z,0.00
2018-01-05T01:13:09.765Z,0.00
2018-01-05T01:14:09.762Z,0.00
2018-01-05T01:15:09.757Z,0.00
2018-01-05T01:16:09.751Z,0.00
2018-01-05T01:17:09.747Z,0.00
2018-01-05T01:18:09.743Z,0.00
2018-01-05T01:19:09.740Z,0.00
2018-01-05T01:20:09.732Z,0.00
2018-01-05T01:21:09.729Z,0.00
2018-01-05T01:22:09.721Z,0.00
2018-01-05T01:23:09.718Z,0.00
2018-01-05T01:24:09.712Z,0.00
2018-01-05T01:25:09.708Z,0.00
2018-01-05T01:26:09.707Z,0.00
2018-01-05T01:27:09.698Z,0.00
2018-01-05T01:28:09.693Z,0.00
2018-01-05T01:29:09.689Z,0.00
2018-01-05T01:30:09.683Z,0.00
2018-01-05T01:31:09.679Z,0.00
2018-01-05T01:32:09.674Z,0.00
2018-01-05T01:33:09.668Z,0.00
2018-01-05T01:34:09.667Z,0.00
2018-01-05T01:35:09.659Z,0.00
2018-01-05T01:36:09.654Z,0.00
2018-01-05T01:37:09.649Z,0.00
2018-01-05T01:38:09.644Z,0.00
2018-01-05T01:39:09.639Z,0.00
2018-01-05T01:40:09.633Z,0.00
2018-01-05T01:41:09.629Z,0.00
2018-01-05T01:42:09.625Z,0.00
2018-01-05T01:43:09.620Z,0.00
2018-01-05T01:44:09.614Z,0.00
2018-01-05T01:45:09.608Z,0.00
2018-01-05T01:46:09.604Z,0.00
2018-01-05T01:47:09.600Z,0.00
2018-01-05T01:48:09.593Z,0.00
2018-01-05T01:49:09.588Z,0.00
2018-01-05T01:50:09.583Z,0.00
2018-01-05T01:51:09.579Z,0.00
2018-01-05T01:52:09.573Z,0.00
2018-01-05T01:53:09.568Z,0.00
2018-01-05T01:54:09.563Z,0.00
2018-01-05T01:55:09.559Z,0.00
2018-01-05T01:56:09.553Z,0.00
2018-01-05T01:57:09.547Z,0.00
2018-01-05T01:58:09.543Z,0.00
2018-01-05T01:59:09.538Z,0.00
2018-01-05T02:00:09.532Z,0.00
2018-01-05T02:01:09.527Z,0.00
2018-01-05T02:02:09.523Z,0.00
2018-01-05T02:03:09.518Z,0.00
2018-01-05T02:04:09.512Z,0.00
2018-01-05T02:05:09.507Z,0.00
2018-01-05T02:06:09.503Z,0.00
2018-01-05T02:07:09.498Z,0.00
2018-01-05T02:08:09.492Z,0.00
2018-01-05T02:09:09.488Z,0.00
2018-01-05T02:10:09.482Z,0.00
2018-01-05T02:11:09.502Z,0.00
2018-01-05T02:12:09.472Z,0.00
2018-01-05T02:13:09.466Z,0.00
2018-01-05T02:14:09.462Z,0.00
2018-01-05T02:15:09.457Z,0.00
2018-01-05T02:16:09.451Z,0.00
2018-01-05T02:17:09.447Z,0.00
2018-01-05T02:18:09.445Z,0.00
2018-01-05T02:19:09.436Z,0.00
2018-01-05T02:20:09.471Z,0.00
2018-01-05T02:21:09.424Z,0.00
2018-01-05T02:22:09.420Z,0.00
2018-01-05T02:23:09.416Z,0.00
2018-01-05T02:24:09.410Z,0.00
2018-01-05T02:25:09.405Z,0.00
2018-01-05T02:26:09.400Z,0.00
2018-01-05T02:27:09.396Z,0.00
2018-01-05T02:28:09.389Z,0.00
2018-01-05T02:29:09.385Z,0.00
2018-01-05T02:30:09.379Z,0.00
2018-01-05T02:31:09.375Z,0.00
2018-01-05T02:32:09.369Z,0.00
2018-01-05T02:33:09.370Z,0.00
2018-01-05T02:34:09.359Z,0.00
2018-01-05T02:35:09.354Z,0.00
2018-01-05T02:36:09.348Z,0.00
2018-01-05T02:37:09.343Z,0.00
2018-01-05T02:38:09.338Z,0.00
2018-01-05T02:39:09.333Z,0.00
2018-01-05T02:40:09.328Z,0.00
2018-01-05T02:41:09.323Z,0.00
2018-01-05T02:42:09.318Z,0.00
2018-01-05T02:43:09.369Z,0.00
2018-01-05T02:44:09.307Z,0.00
2018-01-05T02:45:09.301Z,0.00
2018-01-05T02:46:09.298Z,0.00
2018-01-05T02:47:09.292Z,0.00
2018-01-05T02:48:09.285Z,0.00
2018-01-05T02:49:09.280Z,0.00
2018-01-05T02:50:09.274Z,0.00
2018-01-05T02:51:09.269Z,0.00
2018-01-05T02:52:09.264Z,0.00
2018-01-05T02:53:09.259Z,0.00
2018-01-05T02:54:09.254Z,0.00
2018-01-05T02:55:09.249Z,0.00
2018-01-05T02:56:09.243Z,0.00
2018-01-05T02:57:09.237Z,0.00
2018-01-05T02:58:09.234Z,0.00
2018-01-05T02:59:09.230Z,0.00
2018-01-05T03:00:09.225Z,0.00
2018-01-05T03:01:09.217Z,0.00
2018-01-05T03:02:09.212Z,0.00
2018-01-05T03:03:09.207Z,0.00
2018-01-05T03:04:09.199Z,0.00
2018-01-05T03:05:09.196Z,0.00
2018-01-05T03:06:09.191Z,0.00
2018-01-05T03:07:09.186Z,0.00
2018-01-05T03:08:09.180Z,0.00
2018-01-05T03:09:09.174Z,0.00
2018-01-05T03:10:09.171Z,0.00
2018-01-05T03:11:09.165Z,0.00
2018-01-05T03:12:09.159Z,0.00
2018-01-05T03:13:09.153Z,0.00
2018-01-05T03:14:09.149Z,0.00
2018-01-05T03:15:09.145Z,0.00
2018-01-05T03:16:09.139Z,0.00
2018-01-05T03:17:09.134Z,0.00
2018-01-05T03:18:09.129Z,0.00
2018-01-05T03:19:09.124Z,0.00
2018-01-05T03:20:09.119Z,0.00
2018-01-05T03:21:09.114Z,0.00
2018-01-05T03:22:09.109Z,0.00
2018-01-05T03:23:09.104Z,0.00
2018-01-05T03:24:09.098Z,0.00
2018-01-05T03:25:09.094Z,0.00
2018-01-05T03:26:09.089Z,0.00
2018-01-05T03:27:09.085Z,0.00
2018-01-05T03:28:09.079Z,0.00
2018-01-05T03:29:09.073Z,0.00
2018-01-05T03:30:09.070Z,0.00
2018-01-05T03:31:09.065Z,0.00
2018-01-05T03:32:09.058Z,0.00
2018-01-05T03:33:09.053Z,0.00
2018-01-05T03:34:09.048Z,0.00
2018-01-05T03:35:09.043Z,0.00
2018-01-05T03:36:09.038Z,0.00
2018-01-05T03:37:09.034Z,0.00
2018-01-05T03:38:09.029Z,0.00
2018-01-05T03:39:09.024Z,0.00
2018-01-05T03:40:09.019Z,0.00
2018-01-05T03:41:09.014Z,0.00
2018-01-05T03:42:09.009Z,0.00
2018-01-05T03:43:09.005Z,0.00
2018-01-05T03:44:09.000Z,0.00
2018-01-05T03:45:08.993Z,0.00
2018-01-05T03:46:08.989Z,0.00
2018-01-05T03:47:08.985Z,0.00
2018-01-05T03:48:08.979Z,0.00
2018-01-05T03:49:08.975Z,0.00
2018-01-05T03:50:08.970Z,0.00
2018-01-05T03:51:08.966Z,0.00
2018-01-05T03:52:08.960Z,0.00
2018-01-05T03:53:08.954Z,0.00
2018-01-05T03:54:08.951Z,0.00
2018-01-05T03:55:08.946Z,0.00
2018-01-05T03:56:08.940Z,0.00
2018-01-05T03:57:08.936Z,0.00
2018-01-05T03:58:08.937Z,0.00
2018-01-05T03:59:08.927Z,0.00
2018-01-05T04:00:08.921Z,0.00
2018-01-05T04:01:08.917Z,0.00
2018-01-05T04:02:08.911Z,0.00
2018-01-05T04:03:08.907Z,0.00
2018-01-05T04:04:08.901Z,0.00
2018-01-05T04:05:08.897Z,0.00
2018-01-05T04:06:08.892Z,0.00
2018-01-05T04:07:08.888Z,0.00
2018-01-05T04:08:08.882Z,0.00
2018-01-05T04:09:08.877Z,0.00
2018-01-05T04:10:08.873Z,0.00
2018-01-05T04:11:08.872Z,0.00
2018-01-05T04:12:08.861Z,0.00
2018-01-05T04:13:08.858Z,0.00
2018-01-05T04:14:08.853Z,0.00
2018-01-05T04:15:08.848Z,0.00
2018-01-05T04:16:08.843Z,0.00
2018-01-05T04:17:08.838Z,0.00
2018-01-05T04:18:08.835Z,0.00
2018-01-05T04:19:08.829Z,0.00
2018-01-05T04:20:08.823Z,0.00
2018-01-05T04:21:08.819Z,0.00
2018-01-05T04:22:08.815Z,0.00
2018-01-05T04:23:08.810Z,0.00
2018-01-05T04:24:08.804Z,0.00
2018-01-05T04:25:08.799Z,0.00
2018-01-05T04:26:08.794Z,0.00
2018-01-05T04:27:08.790Z,0.00
2018-01-05T04:28:08.783Z,0.00
2018-01-05T04:29:08.778Z,0.00
2018-01-05T04:30:08.774Z,0.00
2018-01-05T04:31:08.769Z,0.00
2018-01-05T04:32:08.765Z,0.00
2018-01-05T04:33:08.760Z,0.00
2018-01-05T04:34:08.756Z,0.00
2018-01-05T04:35:08.751Z,0.00
2018-01-05T04:36:08.745Z,0.00
2018-01-05T04:37:08.740Z,0.00
2018-01-05T04:38:08.736Z,0.00
2018-01-05T04:39:08.731Z,0.00
2018-01-05T04:40:08.724Z,0.00
2018-01-05T04:41:08.721Z,0.00
2018-01-05T04:42:08.716Z,0.00
2018-01-05T04:43:08.711Z,0.00
2018-01-05T04:44:08.705Z,0.00
2018-01-05T04:45:08.701Z,0.00
2018-01-05T04:46:08.697Z,0.00
2018-01-05T04:47:08.692Z,0.00
2018-01-05T04:48:08.687Z,0.00
2018-01-05T04:49:08.681Z,0.00
2018-01-05T04:50:08.677Z,0.00
2018-01-05T04:51:08.673Z,0.00
2018-01-05T04:52:08.667Z,0.00
2018-01-05T04:53:08.662Z,0.00
2018-01-05T04:54:08.658Z,0.00
2018-01-05T04:55:08.653Z,0.00
2018-01-05T04:56:08.648Z,0.00
2018-01-05T04:57:08.642Z,0.00
2018-01-05T04:58:08.636Z,0.00
2018-01-05T04:59:08.633Z,0.00
2018-01-05T05:00:08.628Z,0.00
2018-01-05T05:01:08.621Z,0.00
2018-01-05T05:02:08.618Z,0.00
2018-01-05T05:03:08.614Z,0.00
2018-01-05T05:04:08.608Z,0.00
2018-01-05T05:05:08.603Z,0.00
2018-01-05T05:06:08.598Z,0.00
2018-01-05T05:07:08.594Z,0.00
2018-01-05T05:08:08.588Z,0.00
2018-01-05T05:09:08.584Z,0.00
2018-01-05T05:10:08.580Z,0.00
2018-01-05T05:11:08.574Z,0.00
2018-01-05T05:12:08.571Z,0.00
2018-01-05T05:13:08.564Z,0.00
2018-01-05T05:14:08.560Z,0.00
2018-01-05T05:15:08.555Z,0.00
2018-01-05T05:16:08.550Z,0.00
2018-01-05T05:17:08.545Z,0.00
2018-01-05T05:18:08.540Z,0.00
2018-01-05T05:19:08.535Z,0.00
2018-01-05T05:20:08.531Z,0.00
2018-01-05T05:21:08.525Z,0.00
2018-01-05T05:22:08.521Z,0.00
2018-01-05T05:23:08.516Z,0.00
2018-01-05T05:24:08.510Z,0.00
2018-01-05T05:25:08.506Z,0.00
2018-01-05T05:26:08.501Z,0.00
2018-01-05T05:27:08.495Z,0.00
2018-01-05T05:28:08.490Z,0.00
2018-01-05T05:29:08.486Z,0.00
2018-01-05T05:30:08.481Z,0.00
2018-01-05T05:31:08.477Z,0.00
2018-01-05T05:32:08.473Z,0.00
2018-01-05T05:33:08.465Z,0.00
2018-01-05T05:34:08.461Z,0.00
2018-01-05T05:35:08.457Z,0.00
2018-01-05T05:36:08.451Z,0.00
2018-01-05T05:37:08.447Z,0.00
2018-01-05T05:38:08.443Z,0.00
2018-01-05T05:39:08.437Z,0.00
2018-01-05T05:40:08.434Z,0.00
2018-01-05T05:41:08.427Z,0.00
2018-01-05T05:42:08.422Z,0.00
2018-01-05T05:43:08.418Z,0.00
2018-01-05T05:44:08.412Z,0.00
2018-01-05T05:45:08.407Z,0.00
2018-01-05T05:46:08.403Z,0.00
2018-01-05T05:47:08.399Z,0.00
2018-01-05T05:48:08.394Z,0.00
2018-01-05T05:49:08.392Z,0.00
2018-01-05T05:50:08.384Z,0.00
2018-01-05T05:51:08.379Z,0.00
2018-01-05T05:52:08.374Z,0.00
2018-01-05T05:53:08.369Z,0.00
2018-01-05T05:54:08.365Z,0.00
2018-01-05T05:55:08.361Z,0.00
2018-01-05T05:56:08.355Z,0.00
2018-01-05T05:57:08.351Z,0.00
2018-01-05T05:58:08.346Z,0.00
2018-01-05T05:59:08.341Z,0.00
2018-01-05T06:00:08.335Z,0.00
2018-01-05T06:01:08.331Z,0.00
2018-01-05T06:02:08.327Z,0.00
2018-01-05T06:03:08.323Z,0.00
2018-01-05T06:04:08.317Z,0.00
2018-01-05T06:05:08.313Z,0.00
2018-01-05T06:06:08.313Z,0.00
2018-01-05T06:07:08.304Z,0.00
2018-01-05T06:08:08.298Z,0.00
2018-01-05T06:09:08.293Z,0.00
2018-01-05T06:10:08.289Z,0.00
2018-01-05T06:11:08.283Z,0.00
2018-01-05T06:12:08.279Z,0.00
2018-01-05T06:13:08.274Z,0.00
2018-01-05T06:14:08.270Z,0.00
2018-01-05T06:15:08.265Z,0.00
2018-01-05T06:16:08.260Z,0.00
2018-01-05T06:17:08.255Z,0.00
2018-01-05T06:18:08.250Z,0.00
2018-01-05T06:19:08.247Z,0.00
2018-01-05T06:20:08.240Z,0.00
2018-01-05T06:21:08.238Z,0.00
2018-01-05T06:22:08.233Z,0.00
2018-01-05T06:23:08.227Z,0.00
2018-01-05T06:24:08.224Z,0.00
2018-01-05T06:25:08.219Z,0.00
2018-01-05T06:26:08.212Z,0.00
2018-01-05T06:27:08.206Z,0.00
2018-01-05T06:28:08.202Z,0.00
2018-01-05T06:29:08.197Z,0.00
2018-01-05T06:30:08.193Z,0.00
2018-01-05T06:31:08.190Z,0.00
2018-01-05T06:32:08.184Z,0.00
2018-01-05T06:33:08.182Z,0.00
2018-01-05T06:34:08.174Z,0.00
2018-01-05T06:35:08.174Z,0.00
2018-01-05T06:36:08.165Z,0.00
2018-01-05T06:37:08.159Z,0.00
2018-01-05T06:38:08.156Z,0.00
2018-01-05T06:39:08.151Z,0.00
2018-01-05T06:40:08.145Z,0.00
2018-01-05T06:41:08.141Z,0.00
2018-01-05T06:42:08.136Z,0.00
2018-01-05T06:43:08.132Z,0.00
2018-01-05T06:44:08.126Z,0.00
2018-01-05T06:45:08.122Z,0.00
2018-01-05T06:46:08.116Z,0.00
2018-01-05T06:47:08.113Z,0.00
2018-01-05T06:48:08.107Z,0.00
2018-01-05T06:49:08.106Z,0.00
2018-01-05T06:50:08.099Z,0.00
2018-01-05T06:51:08.094Z,0.00
2018-01-05T06:52:08.088Z,0.00
2018-01-05T06:53:08.082Z,0.00
2018-01-05T06:54:08.079Z,0.00
2018-01-05T06:55:08.075Z,0.00
2018-01-05T06:56:08.070Z,0.00
2018-01-05T06:57:08.065Z,0.00
2018-01-05T06:58:08.060Z,0.00
2018-01-05T06:59:08.056Z,0.00
2018-01-05T07:00:08.050Z,0.00
2018-01-05T07:01:08.046Z,0.00
2018-01-05T07:02:08.041Z,0.00
2018-01-05T07:03:08.037Z,0.00
2018-01-05T07:04:08.030Z,0.00
2018-01-05T07:05:08.026Z,0.00
2018-01-05T07:06:08.022Z,0.00
2018-01-05T07:07:08.017Z,0.00
2018-01-05T07:08:08.013Z,0.00
2018-01-05T07:09:08.007Z,0.00
2018-01-05T07:10:08.002Z,0.00
2018-01-05T07:11:07.997Z,0.00
2018-01-05T07:12:07.992Z,0.00
2018-01-05T07:13:07.986Z,4.00
2018-01-05T07:14:07.982Z,4.00
2018-01-05T07:15:07.981Z,4.00
2018-01-05T07:16:07.972Z,4.00
2018-01-05T07:17:07.967Z,4.00
2018-01-05T07:18:07.962Z,4.00
2018-01-05T07:19:07.958Z,4.00
2018-01-05T07:20:07.951Z,8.00
2018-01-05T07:21:07.946Z,12.00
2018-01-05T07:22:07.941Z,12.00
2018-01-05T07:23:07.937Z,12.00
2018-01-05T07:24:07.931Z,12.00
2018-01-05T07:25:07.927Z,16.00
2018-01-05T07:26:07.922Z,12.00
2018-01-05T07:27:07.917Z,16.00
2018-01-05T07:28:07.911Z,16.00
2018-01-05T07:29:07.906Z,24.00
2018-01-05T07:30:07.901Z,24.00
2018-01-05T07:31:07.896Z,28.00
2018-01-05T07:32:07.891Z,28.00
2018-01-05T07:33:07.885Z,32.00
2018-01-05T07:34:07.880Z,32.00
2018-01-05T07:35:07.875Z,44.00
2018-01-05T07:36:07.870Z,40.00
2018-01-05T07:37:07.866Z,44.00
2018-01-05T07:38:07.860Z,56.00
2018-01-05T07:39:07.854Z,60.00
2018-01-05T07:40:07.849Z,64.00
2018-01-05T07:41:07.844Z,68.00
2018-01-05T07:42:07.839Z,100.00
2018-01-05T07:43:07.834Z,84.00
2018-01-05T07:44:07.828Z,84.00
2018-01-05T07:45:07.822Z,104.00
2018-01-05T07:46:07.818Z,108.00
2018-01-05T07:47:07.813Z,100.00
2018-01-05T07:48:07.810Z,104.00
2018-01-05T07:49:07.802Z,100.00
2018-01-05T07:50:07.796Z,124.00
2018-01-05T07:51:07.792Z,152.00
2018-01-05T07:52:07.785Z,168.00
2018-01-05T07:53:07.781Z,164.00
2018-01-05T07:54:07.776Z,192.00
2018-01-05T07:55:07.770Z,220.00
2018-01-05T07:56:07.763Z,232.00
2018-01-05T07:57:07.761Z,240.00
2018-01-05T07:58:07.753Z,232.00
2018-01-05T07:59:07.749Z,236.00
2018-01-05T08:00:07.743Z,248.00
2018-01-05T08:01:07.737Z,284.00
2018-01-05T08:02:07.739Z,336.00
2018-01-05T08:03:07.727Z,340.00
2018-01-05T08:04:07.721Z,324.00
2018-01-05T08:05:07.715Z,324.00
2018-01-05T08:06:07.710Z,360.00
2018-01-05T08:07:07.705Z,412.00
2018-01-05T08:08:07.699Z,432.00
2018-01-05T08:09:07.694Z,452.00
2018-01-05T08:10:07.688Z,500.00
2018-01-05T08:11:07.683Z,540.00
2018-01-05T08:12:07.677Z,544.00
2018-01-05T08:13:07.672Z,540.00
2018-01-05T08:14:07.668Z,632.00
2018-01-05T08:15:07.661Z,716.00
2018-01-05T08:16:07.656Z,724.00
2018-01-05T08:17:07.651Z,716.00
2018-01-05T08:18:07.645Z,656.00
2018-01-05T08:19:07.640Z,628.00
2018-01-05T08:20:07.633Z,668.00
2018-01-05T08:21:07.628Z,704.00
2018-01-05T08:22:07.624Z,760.00
2018-01-05T08:23:07.617Z,876.00
2018-01-05T08:24:07.612Z,1068.00
2018-01-05T08:25:07.610Z,1188.00
2018-01-05T08:26:07.602Z,1276.00
2018-01-05T08:27:07.598Z,1328.00
2018-01-05T08:28:07.591Z,1352.00
2018-01-05T08:29:07.585Z,1384.00
2018-01-05T08:30:07.581Z,1352.00
2018-01-05T08:31:07.575Z,1212.00
2018-01-05T08:32:07.571Z,1172.00
2018-01-05T08:33:07.563Z,1140.00
2018-01-05T08:34:07.559Z,1292.00
2018-01-05T08:35:07.554Z,1396.00
2018-01-05T08:36:07.547Z,1440.00
2018-01-05T08:37:07.542Z,1460.00
2018-01-05T08:38:07.537Z,1452.00
2018-01-05T08:39:07.532Z,1548.00
2018-01-05T08:40:07.525Z,1676.00
2018-01-05T08:41:07.522Z,1844.00
2018-01-05T08:42:07.517Z,1940.00
2018-01-05T08:43:07.512Z,1976.00
2018-01-05T08:44:07.510Z,2064.00
2018-01-05T08:45:07.500Z,2044.00
2018-01-05T08:46:07.498Z,1872.00
2018-01-05T08:47:07.491Z,1888.00
2018-01-05T08:48:07.485Z,1972.00
2018-01-05T08:49:07.481Z,2044.00
2018-01-05T08:50:07.475Z,2064.00
2018-01-05T08:51:07.472Z,2032.00
2018-01-05T08:52:07.465Z,1956.00
2018-01-05T08:53:07.460Z,1912.00
2018-01-05T08:54:07.455Z,1988.00
2018-01-05T08:55:07.450Z,2124.00
2018-01-05T08:56:07.447Z,2280.00
2018-01-05T08:57:07.439Z,2408.00
2018-01-05T08:58:07.435Z,2528.00
2018-01-05T08:59:07.431Z,2596.00
2018-01-05T09:00:07.426Z,2616.00
2018-01-05T09:01:07.420Z,2596.00
2018-01-05T09:02:07.416Z,2516.00
2018-01-05T09:03:07.412Z,2508.00
2018-01-05T09:04:07.407Z,2472.00
2018-01-05T09:05:07.405Z,2548.00
2018-01-05T09:06:07.397Z,2608.00
2018-01-05T09:07:07.391Z,2620.00
2018-01-05T09:08:07.386Z,2684.00
2018-01-05T09:09:07.382Z,2556.00
2018-01-05T09:10:07.405Z,2280.00
2018-01-05T09:11:07.372Z,2120.00
2018-01-05T09:12:07.367Z,2276.00
2018-01-05T09:13:07.363Z,2396.00
2018-01-05T09:14:07.358Z,2524.00
2018-01-05T09:15:07.354Z,2380.00
2018-01-05T09:16:07.348Z,2316.00
2018-01-05T09:17:07.344Z,2136.00
2018-01-05T09:18:07.339Z,1748.00
2018-01-05T09:19:07.335Z,1408.00
2018-01-05T09:20:07.330Z,1400.00
2018-01-05T09:21:07.332Z,1344.00
2018-01-05T09:22:07.320Z,1500.00
2018-01-05T09:23:07.316Z,1388.00
2018-01-05T09:24:07.310Z,1280.00
2018-01-05T09:25:07.305Z,1264.00
2018-01-05T09:26:07.301Z,1024.00
2018-01-05T09:27:07.297Z,1156.00
2018-01-05T09:28:07.292Z,1432.00
2018-01-05T09:29:07.288Z,1456.00
2018-01-05T09:30:07.282Z,1288.00
2018-01-05T09:31:07.278Z,1316.00
2018-01-05T09:32:07.273Z,1512.00
2018-01-05T09:33:07.270Z,1080.00
2018-01-05T09:34:07.263Z,1076.00
2018-01-05T09:35:07.260Z,920.00
2018-01-05T09:36:07.254Z,704.00
2018-01-05T09:37:07.250Z,732.00
2018-01-05T09:38:07.247Z,960.00
2018-01-05T09:39:07.242Z,772.00
2018-01-05T09:40:07.235Z,856.00
2018-01-05T09:41:07.231Z,1080.00
2018-01-05T09:42:07.226Z,1564.00
2018-01-05T09:43:07.224Z,1792.00
2018-01-05T09:44:07.218Z,2216.00
2018-01-05T09:45:07.212Z,1404.00
2018-01-05T09:46:07.208Z,1336.00
2018-01-05T09:47:07.203Z,1628.00
2018-01-05T09:48:07.199Z,1916.00
2018-01-05T09:49:07.194Z,1924.00
2018-01-05T09:50:07.190Z,1664.00
2018-01-05T09:51:07.184Z,1576.00
2018-01-05T09:52:07.185Z,1744.00
2018-01-05T09:53:07.175Z,1644.00
2018-01-05T09:54:07.171Z,1556.00
2018-01-05T09:55:07.166Z,1408.00
2018-01-05T09:56:07.161Z,1528.00
2018-01-05T09:57:07.156Z,1484.00
2018-01-05T09:58:07.153Z,1708.00
2018-01-05T09:59:07.148Z,2148.00
2018-01-05T10:00:07.150Z,2340.00
2018-01-05T10:01:07.139Z,2340.00
2018-01-05T10:02:07.135Z,1832.00
2018-01-05T10:03:07.130Z,1872.00
2018-01-05T10:04:07.125Z,2060.00
2018-01-05T10:05:07.121Z,1964.00
2018-01-05T10:06:07.117Z,2176.00
2018-01-05T10:07:07.112Z,2388.00
2018-01-05T10:08:07.107Z,2496.00
2018-01-05T10:09:07.102Z,2644.00
2018-01-05T10:10:07.098Z,2620.00
2018-01-05T10:11:07.094Z,2708.00
2018-01-05T10:12:07.090Z,2360.00
2018-01-05T10:13:07.085Z,3004.00
2018-01-05T10:14:07.081Z,2840.00
2018-01-05T10:15:07.078Z,2484.00
2018-01-05T10:16:07.072Z,2668.00
2018-01-05T10:17:07.068Z,2788.00
2018-01-05T10:18:07.063Z,2760.00
2018-01-05T10:19:07.060Z,2940.00
2018-01-05T10:20:07.061Z,3180.00
2018-01-05T10:21:07.050Z,3212.00
2018-01-05T10:22:07.046Z,3472.00
2018-01-05T10:23:07.042Z,3244.00
2018-01-05T10:24:07.038Z,3348.00
2018-01-05T10:25:07.033Z,3596.00
2018-01-05T10:26:07.029Z,3520.00
2018-01-05T10:27:07.025Z,3792.00
2018-01-05T10:28:07.021Z,3316.00
2018-01-05T10:29:07.016Z,3188.00
2018-01-05T10:30:07.014Z,3140.00
2018-01-05T10:31:07.009Z,2996.00
2018-01-05T10:32:07.004Z,2712.00
2018-01-05T10:33:07.000Z,2552.00
2018-01-05T10:34:06.997Z,2752.00
2018-01-05T10:35:06.992Z,2988.00
2018-01-05T10:36:06.990Z,2472.00
2018-01-05T10:37:06.984Z,2472.00
2018-01-05T10:38:06.979Z,2472.00
2018-01-05T10:39:06.976Z,3136.00
2018-01-05T10:40:06.971Z,3424.00
2018-01-05T10:41:06.973Z,3612.00
2018-01-05T10:42:06.964Z,3388.00
2018-01-05T10:43:06.960Z,3248.00
2018-01-05T10:44:06.955Z,3180.00
2018-01-05T10:45:06.952Z,3188.00
2018-01-05T10:46:06.947Z,3532.00
2018-01-05T10:47:06.944Z,3832.00
2018-01-05T10:48:06.941Z,3928.00
2018-01-05T10:49:06.939Z,4196.00
2018-01-05T10:50:06.932Z,4376.00
2018-01-05T10:51:06.929Z,4544.00
2018-01-05T10:52:06.925Z,4768.00
2018-01-05T10:53:06.920Z,4736.00
2018-01-05T10:54:06.917Z,4628.00
2018-01-05T10:55:06.913Z,4816.00
2018-01-05T10:56:06.909Z,4584.00
2018-01-05T10:57:06.905Z,4248.00
2018-01-05T10:58:06.903Z,4196.00
2018-01-05T10:59:06.903Z,4336.00
2018-01-05T11:00:06.895Z,3844.00
2018-01-05T11:01:06.891Z,3744.00
2018-01-05T11:02:06.887Z,3812.00
2018-01-05T11:03:06.883Z,3860.00
2018-01-05T11:04:06.880Z,3796.00
2018-01-05T11:05:06.877Z,3840.00
2018-01-05T11:06:06.873Z,4156.00
2018-01-05T11:07:06.871Z,4356.00
2018-01-05T11:08:06.867Z,4312.00
2018-01-05T11:09:06.861Z,4104.00
2018-01-05T11:10:06.859Z,4040.00
2018-01-05T11:11:06.855Z,3896.00
2018-01-05T11:12:06.853Z,3728.00
2018-01-05T11:13:06.848Z,3608.00
2018-01-05T11:14:06.845Z,3524.00
2018-01-05T11:15:06.841Z,3536.00
2018-01-05T11:16:06.837Z,3436.00
2018-01-05T11:17:06.833Z,3240.00
2018-01-05T11:18:06.830Z,3208.00
2018-01-05T11:19:06.826Z,3236.00
2018-01-05T11:20:06.822Z,3148.00
2018-01-05T11:21:06.824Z,3112.00
2018-01-05T11:22:06.815Z,3064.00
2018-01-05T11:23:06.817Z,3116.00
2018-01-05T11:24:06.807Z,3220.00
2018-01-05T11:25:06.803Z,3224.00
2018-01-05T11:26:06.801Z,3232.00
2018-01-05T11:27:06.799Z,3304.00
2018-01-05T11:28:06.794Z,3312.00
2018-01-05T11:29:06.790Z,3288.00
2018-01-05T11:30:06.785Z,3236.00
2018-01-05T11:31:06.782Z,3228.00
2018-01-05T11:32:06.778Z,3336.00
2018-01-05T11:33:06.775Z,3344.00
2018-01-05T11:34:06.772Z,3244.00
2018-01-05T11:35:06.768Z,3196.00
2018-01-05T11:36:06.767Z,3140.00
2018-01-05T11:37:06.766Z,2956.00
2018-01-05T11:38:06.757Z,2620.00
2018-01-05T11:39:06.753Z,2416.00
2018-01-05T11:40:06.751Z,2472.00
2018-01-05T11:41:06.748Z,2840.00
2018-01-05T11:42:06.771Z,3408.00
2018-01-05T11:43:06.740Z,2668.00
2018-01-05T11:44:06.740Z,2164.00
2018-01-05T11:45:06.732Z,1980.00
2018-01-05T11:46:06.729Z,2128.00
2018-01-05T11:47:06.724Z,2656.00
2018-01-05T11:48:06.721Z,2632.00
2018-01-05T11:49:06.718Z,2952.00
2018-01-05T11:50:06.715Z,2936.00
2018-01-05T11:51:06.711Z,2480.00
2018-01-05T11:52:06.707Z,2188.00
2018-01-05T11:53:06.704Z,2024.00
2018-01-05T11:54:06.701Z,1884.00
2018-01-05T11:55:06.698Z,1796.00
2018-01-05T11:56:06.693Z,1812.00
2018-01-05T11:57:06.690Z,2252.00
2018-01-05T11:58:06.688Z,2288.00
2018-01-05T11:59:06.684Z,2284.00
2018-01-05T12:00:06.680Z,2176.00
2018-01-05T12:01:06.677Z,2060.00
2018-01-05T12:02:06.673Z,2348.00
2018-01-05T12:03:06.670Z,2584.00
2018-01-05T12:04:06.667Z,2648.00
2018-01-05T12:05:06.662Z,2856.00
2018-01-05T12:06:06.659Z,3500.00
2018-01-05T12:07:06.655Z,3780.00
2018-01-05T12:08:06.651Z,3652.00
2018-01-05T12:09:06.652Z,3208.00
2018-01-05T12:10:06.646Z,3384.00
2018-01-05T12:11:06.643Z,3204.00
2018-01-05T12:12:06.643Z,2868.00
2018-01-05T12:13:06.636Z,2892.00
2018-01-05T12:14:06.633Z,3148.00
2018-01-05T12:15:06.631Z,3508.00
2018-01-05T12:16:06.626Z,3564.00
2018-01-05T12:17:06.622Z,3688.00
2018-01-05T12:18:06.620Z,3912.00
2018-01-05T12:19:06.617Z,3816.00
2018-01-05T12:20:06.613Z,3392.00
2018-01-05T12:21:06.610Z,3276.00
2018-01-05T12:22:06.607Z,2924.00
2018-01-05T12:23:06.604Z,2952.00
2018-01-05T12:24:06.600Z,3040.00
2018-01-05T12:25:06.597Z,3540.00
2018-01-05T12:26:06.595Z,3912.00
2018-01-05T12:27:06.594Z,3968.00
2018-01-05T12:28:06.589Z,3788.00
2018-01-05T12:29:06.585Z,3604.00
2018-01-05T12:30:06.583Z,3248.00
2018-01-05T12:31:06.580Z,2948.00
2018-01-05T12:32:06.576Z,2776.00
2018-01-05T12:33:06.574Z,2668.00
2018-01-05T12:34:06.571Z,2588.00
2018-01-05T12:35:06.568Z,2572.00
2018-01-05T12:36:06.563Z,2408.00
2018-01-05T12:37:06.568Z,2196.00
2018-01-05T12:38:06.559Z,2196.00
2018-01-05T12:39:06.557Z,2492.00
2018-01-05T12:40:06.556Z,2452.00
2018-01-05T12:41:06.554Z,2204.00
2018-01-05T12:42:06.550Z,2312.00
2018-01-05T12:43:06.545Z,2008.00
2018-01-05T12:44:06.540Z,1964.00
2018-01-05T12:45:06.538Z,1764.00
2018-01-05T12:46:06.536Z,1592.00
2018-01-05T12:47:06.533Z,1736.00
2018-01-05T12:48:06.529Z,2088.00